sensor_id;sensor_type;location;lat;lon;timestamp;P1;durP1;ratioP1;P2;durP2;ratioP2
12267;SDS011;6196;48.398;11.736;2023-02-01T00:00:52;5.90;;;4.17;;
12267;SDS011;6196;48.398;11.736;2023-02-01T00:03:18;7.20;;;4.70;;
12267;SDS011;6196;48.398;11.736;2023-02-01T00:05:54;6.13;;;5.00;;
12267;SDS011;6196;48.398;11.736;2023-02-01T00:08:25;4.83;;;4.37;;
12267;SDS011;6196;48.398;11.736;2023-02-01T00:10:59;6.57;;;4.80;;
12267;SDS011;6196;48.398;11.736;2023-02-01T00:13:31;5.07;;;4.20;;
12267;SDS011;6196;48.398;11.736;2023-02-01T00:18:32;7.50;;;4.80;;
12267;SDS011;6196;48.398;11.736;2023-02-01T00:20:59;7.03;;;4.47;;
12267;SDS011;6196;48.398;11.736;2023-02-01T00:23:26;5.53;;;4.73;;
12267;SDS011;6196;48.398;11.736;2023-02-01T00:25:53;6.70;;;4.80;;
12267;SDS011;6196;48.398;11.736;2023-02-01T00:28:20;5.77;;;4.50;;
12267;SDS011;6196;48.398;11.736;2023-02-01T00:30:54;5.97;;;4.70;;
12267;SDS011;6196;48.398;11.736;2023-02-01T00:33:27;7.33;;;4.50;;
12267;SDS011;6196;48.398;11.736;2023-02-01T00:35:56;6.37;;;4.97;;
12267;SDS011;6196;48.398;11.736;2023-02-01T00:38:30;6.33;;;4.50;;
12267;SDS011;6196;48.398;11.736;2023-02-01T00:41:07;7.47;;;4.63;;
12267;SDS011;6196;48.398;11.736;2023-02-01T00:43:38;7.13;;;4.63;;
12267;SDS011;6196;48.398;11.736;2023-02-01T00:46:06;7.67;;;4.77;;
12267;SDS011;6196;48.398;11.736;2023-02-01T00:48:33;8.17;;;5.03;;
12267;SDS011;6196;48.398;11.736;2023-02-01T00:51:01;6.93;;;4.40;;
12267;SDS011;6196;48.398;11.736;2023-02-01T00:53:30;5.87;;;4.40;;
12267;SDS011;6196;48.398;11.736;2023-02-01T00:55:58;7.23;;;4.83;;
12267;SDS011;6196;48.398;11.736;2023-02-01T00:58:25;7.43;;;5.33;;
12267;SDS011;6196;48.398;11.736;2023-02-01T01:01:06;6.83;;;4.93;;
12267;SDS011;6196;48.398;11.736;2023-02-01T01:03:44;6.50;;;4.87;;
12267;SDS011;6196;48.398;11.736;2023-02-01T01:06:15;5.83;;;4.57;;
12267;SDS011;6196;48.398;11.736;2023-02-01T01:08:48;7.17;;;4.70;;
12267;SDS011;6196;48.398;11.736;2023-02-01T01:11:21;7.40;;;5.27;;
12267;SDS011;6196;48.398;11.736;2023-02-01T01:13:51;7.60;;;4.87;;
12267;SDS011;6196;48.398;11.736;2023-02-01T01:16:20;7.33;;;4.83;;
12267;SDS011;6196;48.398;11.736;2023-02-01T01:18:48;7.87;;;4.60;;
12267;SDS011;6196;48.398;11.736;2023-02-01T01:21:16;6.17;;;4.63;;
12267;SDS011;6196;48.398;11.736;2023-02-01T01:23:44;6.33;;;5.03;;
12267;SDS011;6196;48.398;11.736;2023-02-01T01:26:17;6.40;;;4.53;;
12267;SDS011;6196;48.398;11.736;2023-02-01T01:28:49;6.10;;;4.83;;
12267;SDS011;6196;48.398;11.736;2023-02-01T01:31:18;6.70;;;5.07;;
12267;SDS011;6196;48.398;11.736;2023-02-01T01:33:50;7.63;;;5.30;;
12267;SDS011;6196;48.398;11.736;2023-02-01T01:36:19;6.73;;;5.13;;
12267;SDS011;6196;48.398;11.736;2023-02-01T01:38:47;6.87;;;5.10;;
12267;SDS011;6196;48.398;11.736;2023-02-01T01:41:16;6.67;;;4.93;;
12267;SDS011;6196;48.398;11.736;2023-02-01T01:46:34;6.87;;;5.27;;
12267;SDS011;6196;48.398;11.736;2023-02-01T01:49:08;7.33;;;5.40;;
12267;SDS011;6196;48.398;11.736;2023-02-01T01:51:56;6.37;;;5.33;;
12267;SDS011;6196;48.398;11.736;2023-02-01T01:54:31;7.77;;;5.60;;
12267;SDS011;6196;48.398;11.736;2023-02-01T01:57:50;7.20;;;5.87;;
12267;SDS011;6196;48.398;11.736;2023-02-01T02:00:05;7.23;;;5.67;;
12267;SDS011;6196;48.398;11.736;2023-02-01T02:02:37;9.57;;;5.57;;
12267;SDS011;6196;48.398;11.736;2023-02-01T02:05:07;10.40;;;6.40;;
12267;SDS011;6196;48.398;11.736;2023-02-01T02:07:37;10.07;;;6.23;;
12267;SDS011;6196;48.398;11.736;2023-02-01T02:10:07;11.17;;;6.20;;
12267;SDS011;6196;48.398;11.736;2023-02-01T02:12:40;9.80;;;7.13;;
12267;SDS011;6196;48.398;11.736;2023-02-01T02:15:11;9.80;;;6.53;;
12267;SDS011;6196;48.398;11.736;2023-02-01T02:29:34;8.37;;;6.70;;
12267;SDS011;6196;48.398;11.736;2023-02-01T02:38:12;9.23;;;6.90;;
12267;SDS011;6196;48.398;11.736;2023-02-01T02:44:02;9.00;;;7.07;;
12267;SDS011;6196;48.398;11.736;2023-02-01T02:47:00;9.67;;;6.73;;
12267;SDS011;6196;48.398;11.736;2023-02-01T02:53:04;9.60;;;7.07;;
12267;SDS011;6196;48.398;11.736;2023-02-01T02:56:06;9.07;;;7.00;;
12267;SDS011;6196;48.398;11.736;2023-02-01T02:58:54;8.90;;;7.10;;
12267;SDS011;6196;48.398;11.736;2023-02-01T03:01:40;11.73;;;7.07;;
12267;SDS011;6196;48.398;11.736;2023-02-01T03:04:26;9.47;;;7.40;;
12267;SDS011;6196;48.398;11.736;2023-02-01T03:06:53;7.53;;;6.33;;
12267;SDS011;6196;48.398;11.736;2023-02-01T03:09:30;7.67;;;6.77;;
12267;SDS011;6196;48.398;11.736;2023-02-01T03:12:02;8.43;;;6.73;;
12267;SDS011;6196;48.398;11.736;2023-02-01T03:14:55;8.30;;;6.93;;
12267;SDS011;6196;48.398;11.736;2023-02-01T03:17:31;9.40;;;7.37;;
12267;SDS011;6196;48.398;11.736;2023-02-01T03:20:04;8.37;;;6.60;;
12267;SDS011;6196;48.398;11.736;2023-02-01T03:22:33;8.83;;;6.57;;
12267;SDS011;6196;48.398;11.736;2023-02-01T03:25:05;8.13;;;6.93;;
12267;SDS011;6196;48.398;11.736;2023-02-01T03:32:53;9.77;;;7.00;;
12267;SDS011;6196;48.398;11.736;2023-02-01T03:35:30;8.80;;;7.03;;
12267;SDS011;6196;48.398;11.736;2023-02-01T03:38:34;7.07;;;6.33;;
12267;SDS011;6196;48.398;11.736;2023-02-01T03:44:13;9.97;;;6.47;;
12267;SDS011;6196;48.398;11.736;2023-02-01T03:50:04;8.70;;;6.80;;
12267;SDS011;6196;48.398;11.736;2023-02-01T03:52:42;8.80;;;6.47;;
12267;SDS011;6196;48.398;11.736;2023-02-01T03:55:13;7.03;;;6.10;;
12267;SDS011;6196;48.398;11.736;2023-02-01T03:57:44;7.00;;;5.27;;
12267;SDS011;6196;48.398;11.736;2023-02-01T04:00:22;6.97;;;5.90;;
12267;SDS011;6196;48.398;11.736;2023-02-01T04:02:51;6.93;;;5.50;;
12267;SDS011;6196;48.398;11.736;2023-02-01T04:05:19;7.93;;;6.43;;
12267;SDS011;6196;48.398;11.736;2023-02-01T04:07:47;8.43;;;6.30;;
12267;SDS011;6196;48.398;11.736;2023-02-01T04:10:14;7.13;;;5.90;;
12267;SDS011;6196;48.398;11.736;2023-02-01T04:12:44;8.13;;;5.93;;
12267;SDS011;6196;48.398;11.736;2023-02-01T04:15:11;7.60;;;5.87;;
12267;SDS011;6196;48.398;11.736;2023-02-01T04:17:38;7.67;;;6.20;;
12267;SDS011;6196;48.398;11.736;2023-02-01T04:20:05;7.77;;;5.97;;
12267;SDS011;6196;48.398;11.736;2023-02-01T04:22:32;7.33;;;5.43;;
12267;SDS011;6196;48.398;11.736;2023-02-01T04:24:59;7.33;;;5.23;;
12267;SDS011;6196;48.398;11.736;2023-02-01T04:27:26;7.40;;;5.77;;
12267;SDS011;6196;48.398;11.736;2023-02-01T04:29:53;6.87;;;5.30;;
12267;SDS011;6196;48.398;11.736;2023-02-01T04:32:23;6.53;;;5.87;;
12267;SDS011;6196;48.398;11.736;2023-02-01T04:34:50;7.13;;;5.20;;
12267;SDS011;6196;48.398;11.736;2023-02-01T04:37:17;7.20;;;5.57;;
12267;SDS011;6196;48.398;11.736;2023-02-01T04:39:44;6.57;;;5.10;;
12267;SDS011;6196;48.398;11.736;2023-02-01T04:42:11;7.80;;;5.63;;
12267;SDS011;6196;48.398;11.736;2023-02-01T04:44:38;6.20;;;4.93;;
12267;SDS011;6196;48.398;11.736;2023-02-01T04:47:07;5.77;;;4.90;;
12267;SDS011;6196;48.398;11.736;2023-02-01T04:49:35;6.00;;;4.97;;
12267;SDS011;6196;48.398;11.736;2023-02-01T04:52:02;6.67;;;5.57;;
12267;SDS011;6196;48.398;11.736;2023-02-01T04:54:29;6.87;;;4.90;;
12267;SDS011;6196;48.398;11.736;2023-02-01T04:56:56;7.93;;;5.27;;
12267;SDS011;6196;48.398;11.736;2023-02-01T04:59:23;7.47;;;4.87;;
12267;SDS011;6196;48.398;11.736;2023-02-01T05:01:50;5.87;;;4.83;;
12267;SDS011;6196;48.398;11.736;2023-02-01T05:04:17;5.73;;;4.17;;
12267;SDS011;6196;48.398;11.736;2023-02-01T05:06:44;5.30;;;4.33;;
12267;SDS011;6196;48.398;11.736;2023-02-01T05:09:12;7.17;;;4.93;;
12267;SDS011;6196;48.398;11.736;2023-02-01T05:11:39;6.80;;;5.20;;
12267;SDS011;6196;48.398;11.736;2023-02-01T05:14:24;7.40;;;5.03;;
12267;SDS011;6196;48.398;11.736;2023-02-01T05:16:51;5.80;;;4.47;;
12267;SDS011;6196;48.398;11.736;2023-02-01T05:19:18;5.23;;;4.50;;
12267;SDS011;6196;48.398;11.736;2023-02-01T05:21:45;5.03;;;4.17;;
12267;SDS011;6196;48.398;11.736;2023-02-01T05:24:12;5.90;;;4.77;;
12267;SDS011;6196;48.398;11.736;2023-02-01T05:26:40;8.33;;;4.27;;
12267;SDS011;6196;48.398;11.736;2023-02-01T05:29:07;5.67;;;4.50;;
12267;SDS011;6196;48.398;11.736;2023-02-01T05:31:36;5.83;;;4.60;;
12267;SDS011;6196;48.398;11.736;2023-02-01T05:34:05;6.00;;;4.30;;
12267;SDS011;6196;48.398;11.736;2023-02-01T05:36:32;5.40;;;4.10;;
12267;SDS011;6196;48.398;11.736;2023-02-01T05:39:07;5.17;;;4.17;;
12267;SDS011;6196;48.398;11.736;2023-02-01T05:41:33;5.03;;;3.97;;
12267;SDS011;6196;48.398;11.736;2023-02-01T05:44:00;5.80;;;4.53;;
12267;SDS011;6196;48.398;11.736;2023-02-01T05:46:28;6.30;;;4.97;;
12267;SDS011;6196;48.398;11.736;2023-02-01T05:48:55;5.17;;;4.43;;
12267;SDS011;6196;48.398;11.736;2023-02-01T05:51:22;5.43;;;4.23;;
12267;SDS011;6196;48.398;11.736;2023-02-01T05:53:48;5.87;;;4.83;;
12267;SDS011;6196;48.398;11.736;2023-02-01T05:56:21;5.00;;;4.23;;
12267;SDS011;6196;48.398;11.736;2023-02-01T05:58:48;5.50;;;4.50;;
12267;SDS011;6196;48.398;11.736;2023-02-01T06:01:15;6.23;;;4.63;;
12267;SDS011;6196;48.398;11.736;2023-02-01T06:03:42;6.47;;;4.37;;
12267;SDS011;6196;48.398;11.736;2023-02-01T06:06:11;5.40;;;4.87;;
12267;SDS011;6196;48.398;11.736;2023-02-01T06:08:38;5.93;;;4.70;;
12267;SDS011;6196;48.398;11.736;2023-02-01T06:11:06;5.03;;;4.20;;
12267;SDS011;6196;48.398;11.736;2023-02-01T06:13:34;7.40;;;5.40;;
12267;SDS011;6196;48.398;11.736;2023-02-01T06:16:01;6.00;;;5.40;;
12267;SDS011;6196;48.398;11.736;2023-02-01T06:18:29;5.50;;;4.77;;
12267;SDS011;6196;48.398;11.736;2023-02-01T06:20:57;6.60;;;4.60;;
12267;SDS011;6196;48.398;11.736;2023-02-01T06:23:29;6.27;;;4.53;;
12267;SDS011;6196;48.398;11.736;2023-02-01T06:26:00;6.03;;;4.47;;
12267;SDS011;6196;48.398;11.736;2023-02-01T06:28:34;6.33;;;4.40;;
12267;SDS011;6196;48.398;11.736;2023-02-01T06:31:04;4.87;;;4.10;;
12267;SDS011;6196;48.398;11.736;2023-02-01T06:33:33;5.27;;;4.60;;
12267;SDS011;6196;48.398;11.736;2023-02-01T06:36:02;5.77;;;4.33;;
12267;SDS011;6196;48.398;11.736;2023-02-01T06:38:32;6.50;;;4.37;;
12267;SDS011;6196;48.398;11.736;2023-02-01T06:41:02;6.40;;;4.17;;
12267;SDS011;6196;48.398;11.736;2023-02-01T06:43:30;5.10;;;3.50;;
12267;SDS011;6196;48.398;11.736;2023-02-01T06:46:02;5.20;;;4.17;;
12267;SDS011;6196;48.398;11.736;2023-02-01T06:48:32;4.80;;;4.10;;
12267;SDS011;6196;48.398;11.736;2023-02-01T06:51:00;6.33;;;4.47;;
12267;SDS011;6196;48.398;11.736;2023-02-01T06:53:27;5.33;;;4.23;;
12267;SDS011;6196;48.398;11.736;2023-02-01T06:55:55;5.63;;;4.03;;
12267;SDS011;6196;48.398;11.736;2023-02-01T06:58:30;5.13;;;4.10;;
12267;SDS011;6196;48.398;11.736;2023-02-01T07:01:08;4.90;;;3.63;;
12267;SDS011;6196;48.398;11.736;2023-02-01T07:03:37;5.30;;;4.40;;
12267;SDS011;6196;48.398;11.736;2023-02-01T07:06:04;5.33;;;4.30;;
12267;SDS011;6196;48.398;11.736;2023-02-01T07:08:33;3.90;;;3.13;;
12267;SDS011;6196;48.398;11.736;2023-02-01T07:11:03;6.27;;;4.10;;
12267;SDS011;6196;48.398;11.736;2023-02-01T07:13:33;5.47;;;4.70;;
12267;SDS011;6196;48.398;11.736;2023-02-01T07:16:01;5.67;;;4.13;;
12267;SDS011;6196;48.398;11.736;2023-02-01T07:18:30;5.27;;;4.37;;
12267;SDS011;6196;48.398;11.736;2023-02-01T07:20:58;5.10;;;4.57;;
12267;SDS011;6196;48.398;11.736;2023-02-01T07:23:26;5.43;;;4.50;;
12267;SDS011;6196;48.398;11.736;2023-02-01T07:25:54;5.20;;;4.10;;
12267;SDS011;6196;48.398;11.736;2023-02-01T07:28:24;6.17;;;4.20;;
12267;SDS011;6196;48.398;11.736;2023-02-01T07:30:52;4.97;;;4.00;;
12267;SDS011;6196;48.398;11.736;2023-02-01T07:33:19;7.63;;;4.77;;
12267;SDS011;6196;48.398;11.736;2023-02-01T07:35:52;5.47;;;4.50;;
12267;SDS011;6196;48.398;11.736;2023-02-01T07:38:19;6.17;;;4.20;;
12267;SDS011;6196;48.398;11.736;2023-02-01T07:40:47;5.70;;;4.77;;
12267;SDS011;6196;48.398;11.736;2023-02-01T07:43:14;6.63;;;4.77;;
12267;SDS011;6196;48.398;11.736;2023-02-01T07:45:41;5.60;;;4.17;;
12267;SDS011;6196;48.398;11.736;2023-02-01T07:48:08;6.03;;;4.23;;
12267;SDS011;6196;48.398;11.736;2023-02-01T07:50:35;6.10;;;4.47;;
12267;SDS011;6196;48.398;11.736;2023-02-01T07:53:02;5.23;;;4.00;;
12267;SDS011;6196;48.398;11.736;2023-02-01T07:55:29;6.73;;;4.50;;
12267;SDS011;6196;48.398;11.736;2023-02-01T07:57:57;6.40;;;4.40;;
12267;SDS011;6196;48.398;11.736;2023-02-01T08:00:25;6.73;;;4.93;;
12267;SDS011;6196;48.398;11.736;2023-02-01T08:03:10;4.87;;;4.33;;
12267;SDS011;6196;48.398;11.736;2023-02-01T08:05:37;4.97;;;4.00;;
12267;SDS011;6196;48.398;11.736;2023-02-01T08:08:04;7.17;;;4.80;;
12267;SDS011;6196;48.398;11.736;2023-02-01T08:10:32;4.40;;;3.57;;
12267;SDS011;6196;48.398;11.736;2023-02-01T08:13:01;5.97;;;3.97;;
12267;SDS011;6196;48.398;11.736;2023-02-01T08:15:29;4.83;;;4.17;;
12267;SDS011;6196;48.398;11.736;2023-02-01T08:17:56;6.13;;;4.50;;
12267;SDS011;6196;48.398;11.736;2023-02-01T08:20:24;6.23;;;4.40;;
12267;SDS011;6196;48.398;11.736;2023-02-01T08:22:54;4.90;;;4.17;;
12267;SDS011;6196;48.398;11.736;2023-02-01T08:25:22;4.00;;;3.60;;
12267;SDS011;6196;48.398;11.736;2023-02-01T08:27:50;5.23;;;4.10;;
12267;SDS011;6196;48.398;11.736;2023-02-01T08:30:17;5.20;;;4.00;;
12267;SDS011;6196;48.398;11.736;2023-02-01T08:32:44;5.57;;;3.80;;
12267;SDS011;6196;48.398;11.736;2023-02-01T08:35:11;3.87;;;3.50;;
12267;SDS011;6196;48.398;11.736;2023-02-01T08:37:38;5.23;;;3.80;;
12267;SDS011;6196;48.398;11.736;2023-02-01T08:40:05;4.87;;;3.73;;
12267;SDS011;6196;48.398;11.736;2023-02-01T08:42:33;6.13;;;3.80;;
12267;SDS011;6196;48.398;11.736;2023-02-01T08:45:19;5.33;;;3.47;;
12267;SDS011;6196;48.398;11.736;2023-02-01T08:47:53;4.67;;;3.40;;
12267;SDS011;6196;48.398;11.736;2023-02-01T08:50:20;4.63;;;3.80;;
12267;SDS011;6196;48.398;11.736;2023-02-01T08:52:48;5.33;;;3.83;;
12267;SDS011;6196;48.398;11.736;2023-02-01T08:55:16;7.00;;;4.33;;
12267;SDS011;6196;48.398;11.736;2023-02-01T08:57:43;3.87;;;3.40;;
12267;SDS011;6196;48.398;11.736;2023-02-01T09:00:11;4.90;;;3.70;;
12267;SDS011;6196;48.398;11.736;2023-02-01T09:02:42;5.67;;;3.67;;
12267;SDS011;6196;48.398;11.736;2023-02-01T09:05:09;4.23;;;3.33;;
12267;SDS011;6196;48.398;11.736;2023-02-01T09:07:37;4.30;;;3.40;;
12267;SDS011;6196;48.398;11.736;2023-02-01T09:10:04;4.20;;;3.37;;
12267;SDS011;6196;48.398;11.736;2023-02-01T09:12:32;4.10;;;3.20;;
12267;SDS011;6196;48.398;11.736;2023-02-01T09:15:00;5.00;;;3.07;;
12267;SDS011;6196;48.398;11.736;2023-02-01T09:17:28;5.00;;;3.10;;
12267;SDS011;6196;48.398;11.736;2023-02-01T09:19:56;4.07;;;3.17;;
12267;SDS011;6196;48.398;11.736;2023-02-01T09:22:23;3.07;;;2.77;;
12267;SDS011;6196;48.398;11.736;2023-02-01T09:24:51;4.47;;;3.10;;
12267;SDS011;6196;48.398;11.736;2023-02-01T09:27:20;4.40;;;3.13;;
12267;SDS011;6196;48.398;11.736;2023-02-01T09:29:47;3.77;;;3.37;;
12267;SDS011;6196;48.398;11.736;2023-02-01T09:32:21;3.77;;;2.93;;
12267;SDS011;6196;48.398;11.736;2023-02-01T09:34:50;3.33;;;2.90;;
12267;SDS011;6196;48.398;11.736;2023-02-01T09:37:19;3.73;;;2.80;;
12267;SDS011;6196;48.398;11.736;2023-02-01T09:39:46;3.10;;;2.77;;
12267;SDS011;6196;48.398;11.736;2023-02-01T09:48:09;2.93;;;2.63;;
12267;SDS011;6196;48.398;11.736;2023-02-01T09:50:48;3.83;;;2.90;;
12267;SDS011;6196;48.398;11.736;2023-02-01T09:53:29;4.30;;;3.00;;
12267;SDS011;6196;48.398;11.736;2023-02-01T09:56:05;4.20;;;2.70;;
12267;SDS011;6196;48.398;11.736;2023-02-01T09:59:52;4.50;;;3.10;;
12267;SDS011;6196;48.398;11.736;2023-02-01T10:02:12;3.17;;;2.40;;
12267;SDS011;6196;48.398;11.736;2023-02-01T10:04:46;3.03;;;2.60;;
12267;SDS011;6196;48.398;11.736;2023-02-01T10:10:11;3.30;;;2.60;;
12267;SDS011;6196;48.398;11.736;2023-02-01T10:21:23;3.63;;;2.47;;
12267;SDS011;6196;48.398;11.736;2023-02-01T10:24:34;2.87;;;2.67;;
12267;SDS011;6196;48.398;11.736;2023-02-01T10:27:13;3.30;;;2.60;;
12267;SDS011;6196;48.398;11.736;2023-02-01T10:29:51;4.83;;;2.70;;
12267;SDS011;6196;48.398;11.736;2023-02-01T10:32:23;2.90;;;2.10;;
12267;SDS011;6196;48.398;11.736;2023-02-01T10:37:42;2.97;;;2.47;;
12267;SDS011;6196;48.398;11.736;2023-02-01T10:40:21;3.67;;;2.40;;
12267;SDS011;6196;48.398;11.736;2023-02-01T10:42:53;5.27;;;2.10;;
12267;SDS011;6196;48.398;11.736;2023-02-01T10:45:26;3.10;;;2.37;;
12267;SDS011;6196;48.398;11.736;2023-02-01T10:47:56;4.53;;;2.50;;
12267;SDS011;6196;48.398;11.736;2023-02-01T10:50:36;3.80;;;2.40;;
12267;SDS011;6196;48.398;11.736;2023-02-01T10:53:22;3.97;;;2.30;;
12267;SDS011;6196;48.398;11.736;2023-02-01T10:55:55;3.57;;;2.27;;
12267;SDS011;6196;48.398;11.736;2023-02-01T10:58:28;4.30;;;2.20;;
12267;SDS011;6196;48.398;11.736;2023-02-01T11:00:59;4.23;;;2.20;;
12267;SDS011;6196;48.398;11.736;2023-02-01T11:08:59;4.40;;;2.13;;
12267;SDS011;6196;48.398;11.736;2023-02-01T11:19:21;4.07;;;1.90;;
12267;SDS011;6196;48.398;11.736;2023-02-01T11:21:52;2.77;;;2.00;;
12267;SDS011;6196;48.398;11.736;2023-02-01T11:24:33;3.23;;;1.83;;
12267;SDS011;6196;48.398;11.736;2023-02-01T11:27:05;3.00;;;2.27;;
12267;SDS011;6196;48.398;11.736;2023-02-01T11:29:48;4.27;;;2.50;;
12267;SDS011;6196;48.398;11.736;2023-02-01T11:32:19;5.30;;;2.20;;
12267;SDS011;6196;48.398;11.736;2023-02-01T11:34:53;3.37;;;1.87;;
12267;SDS011;6196;48.398;11.736;2023-02-01T11:37:37;2.43;;;1.80;;
12267;SDS011;6196;48.398;11.736;2023-02-01T11:42:53;6.20;;;2.10;;
12267;SDS011;6196;48.398;11.736;2023-02-01T11:45:40;3.97;;;2.17;;
12267;SDS011;6196;48.398;11.736;2023-02-01T11:48:10;7.27;;;2.63;;
12267;SDS011;6196;48.398;11.736;2023-02-01T11:57:02;3.97;;;2.40;;
12267;SDS011;6196;48.398;11.736;2023-02-01T12:00:02;4.00;;;2.40;;
12267;SDS011;6196;48.398;11.736;2023-02-01T12:02:59;3.63;;;2.73;;
12267;SDS011;6196;48.398;11.736;2023-02-01T12:11:38;3.07;;;2.50;;
12267;SDS011;6196;48.398;11.736;2023-02-01T12:23:30;5.63;;;2.97;;
12267;SDS011;6196;48.398;11.736;2023-02-01T12:29:24;4.40;;;2.97;;
12267;SDS011;6196;48.398;11.736;2023-02-01T12:32:26;3.43;;;2.50;;
12267;SDS011;6196;48.398;11.736;2023-02-01T12:46:45;5.83;;;2.70;;
12267;SDS011;6196;48.398;11.736;2023-02-01T12:49:21;4.93;;;2.57;;
12267;SDS011;6196;48.398;11.736;2023-02-01T12:52:42;4.77;;;2.67;;
12267;SDS011;6196;48.398;11.736;2023-02-01T12:57:54;5.73;;;3.00;;
12267;SDS011;6196;48.398;11.736;2023-02-01T13:00:44;5.13;;;2.80;;
12267;SDS011;6196;48.398;11.736;2023-02-01T13:06:13;7.90;;;3.13;;
12267;SDS011;6196;48.398;11.736;2023-02-01T13:11:34;4.53;;;3.27;;
12267;SDS011;6196;48.398;11.736;2023-02-01T13:17:00;5.17;;;2.30;;
12267;SDS011;6196;48.398;11.736;2023-02-01T13:22:23;6.00;;;2.53;;
12267;SDS011;6196;48.398;11.736;2023-02-01T13:25:29;7.27;;;2.70;;
12267;SDS011;6196;48.398;11.736;2023-02-01T13:28:12;10.43;;;3.40;;
12267;SDS011;6196;48.398;11.736;2023-02-01T13:37:14;4.63;;;2.80;;
12267;SDS011;6196;48.398;11.736;2023-02-01T13:43:04;5.80;;;2.97;;
12267;SDS011;6196;48.398;11.736;2023-02-01T13:45:43;4.17;;;2.90;;
12267;SDS011;6196;48.398;11.736;2023-02-01T13:48:27;6.03;;;3.00;;
12267;SDS011;6196;48.398;11.736;2023-02-01T13:51:18;2.93;;;2.47;;
12267;SDS011;6196;48.398;11.736;2023-02-01T13:57:31;4.43;;;2.80;;
12267;SDS011;6196;48.398;11.736;2023-02-01T14:00:07;5.33;;;2.50;;
12267;SDS011;6196;48.398;11.736;2023-02-01T14:13:57;4.63;;;2.67;;
12267;SDS011;6196;48.398;11.736;2023-02-01T14:23:56;4.67;;;2.50;;
12267;SDS011;6196;48.398;11.736;2023-02-01T14:31:54;5.93;;;2.90;;
12267;SDS011;6196;48.398;11.736;2023-02-01T14:34:36;7.53;;;2.50;;
12267;SDS011;6196;48.398;11.736;2023-02-01T14:42:38;4.10;;;2.23;;
12267;SDS011;6196;48.398;11.736;2023-02-01T14:47:45;3.90;;;2.50;;
12267;SDS011;6196;48.398;11.736;2023-02-01T14:58:51;4.40;;;2.30;;
12267;SDS011;6196;48.398;11.736;2023-02-01T15:06:31;4.10;;;2.70;;
12267;SDS011;6196;48.398;11.736;2023-02-01T15:09:34;4.90;;;2.70;;
12267;SDS011;6196;48.398;11.736;2023-02-01T15:12:15;7.90;;;3.10;;
12267;SDS011;6196;48.398;11.736;2023-02-01T15:15:11;3.60;;;2.27;;
12267;SDS011;6196;48.398;11.736;2023-02-01T15:17:53;5.63;;;2.63;;
12267;SDS011;6196;48.398;11.736;2023-02-01T15:20:30;4.50;;;2.17;;
12267;SDS011;6196;48.398;11.736;2023-02-01T15:23:03;4.63;;;2.57;;
12267;SDS011;6196;48.398;11.736;2023-02-01T15:25:35;6.10;;;2.20;;
12267;SDS011;6196;48.398;11.736;2023-02-01T15:28:05;3.87;;;1.87;;
12267;SDS011;6196;48.398;11.736;2023-02-01T15:30:39;3.33;;;1.73;;
12267;SDS011;6196;48.398;11.736;2023-02-01T15:33:16;4.23;;;1.90;;
12267;SDS011;6196;48.398;11.736;2023-02-01T15:35:49;3.63;;;2.23;;
12267;SDS011;6196;48.398;11.736;2023-02-01T15:40:55;5.20;;;1.50;;
12267;SDS011;6196;48.398;11.736;2023-02-01T15:43:35;5.00;;;1.80;;
12267;SDS011;6196;48.398;11.736;2023-02-01T15:46:15;4.93;;;1.70;;
12267;SDS011;6196;48.398;11.736;2023-02-01T15:48:49;3.63;;;1.70;;
12267;SDS011;6196;48.398;11.736;2023-02-01T15:51:20;3.93;;;1.70;;
12267;SDS011;6196;48.398;11.736;2023-02-01T15:53:57;7.03;;;1.80;;
12267;SDS011;6196;48.398;11.736;2023-02-01T15:56:35;5.27;;;2.20;;
12267;SDS011;6196;48.398;11.736;2023-02-01T15:59:05;5.03;;;1.90;;
12267;SDS011;6196;48.398;11.736;2023-02-01T16:01:42;4.00;;;1.60;;
12267;SDS011;6196;48.398;11.736;2023-02-01T16:04:16;7.00;;;2.23;;
12267;SDS011;6196;48.398;11.736;2023-02-01T16:06:50;4.13;;;1.90;;
12267;SDS011;6196;48.398;11.736;2023-02-01T16:09:24;6.57;;;2.03;;
12267;SDS011;6196;48.398;11.736;2023-02-01T16:15:00;5.53;;;1.80;;
12267;SDS011;6196;48.398;11.736;2023-02-01T16:17:27;5.47;;;2.10;;
12267;SDS011;6196;48.398;11.736;2023-02-01T16:19:54;5.90;;;1.53;;
12267;SDS011;6196;48.398;11.736;2023-02-01T16:22:21;5.53;;;1.60;;
12267;SDS011;6196;48.398;11.736;2023-02-01T16:24:48;4.27;;;1.63;;
12267;SDS011;6196;48.398;11.736;2023-02-01T16:27:15;5.70;;;2.00;;
12267;SDS011;6196;48.398;11.736;2023-02-01T16:29:42;6.17;;;1.70;;
12267;SDS011;6196;48.398;11.736;2023-02-01T16:32:14;5.80;;;1.93;;
12267;SDS011;6196;48.398;11.736;2023-02-01T16:34:46;6.10;;;2.30;;
12267;SDS011;6196;48.398;11.736;2023-02-01T16:37:21;3.23;;;1.60;;
12267;SDS011;6196;48.398;11.736;2023-02-01T16:39:50;6.10;;;2.10;;
12267;SDS011;6196;48.398;11.736;2023-02-01T16:42:17;6.73;;;2.10;;
12267;SDS011;6196;48.398;11.736;2023-02-01T16:44:44;5.23;;;1.97;;
12267;SDS011;6196;48.398;11.736;2023-02-01T16:47:16;4.17;;;2.13;;
12267;SDS011;6196;48.398;11.736;2023-02-01T16:49:48;6.37;;;2.50;;
12267;SDS011;6196;48.398;11.736;2023-02-01T16:52:17;5.37;;;2.23;;
12267;SDS011;6196;48.398;11.736;2023-02-01T16:54:50;6.07;;;2.13;;
12267;SDS011;6196;48.398;11.736;2023-02-01T16:57:18;6.03;;;2.13;;
12267;SDS011;6196;48.398;11.736;2023-02-01T16:59:48;5.83;;;2.23;;
12267;SDS011;6196;48.398;11.736;2023-02-01T17:02:16;6.10;;;2.67;;
12267;SDS011;6196;48.398;11.736;2023-02-01T17:04:45;4.70;;;1.87;;
12267;SDS011;6196;48.398;11.736;2023-02-01T17:07:18;4.43;;;2.20;;
12267;SDS011;6196;48.398;11.736;2023-02-01T17:12:29;4.33;;;2.23;;
12267;SDS011;6196;48.398;11.736;2023-02-01T17:14:58;4.13;;;2.13;;
12267;SDS011;6196;48.398;11.736;2023-02-01T17:17:31;6.23;;;1.97;;
12267;SDS011;6196;48.398;11.736;2023-02-01T17:20:04;6.97;;;2.30;;
12267;SDS011;6196;48.398;11.736;2023-02-01T17:22:32;5.43;;;2.43;;
12267;SDS011;6196;48.398;11.736;2023-02-01T17:24:59;6.37;;;3.13;;
12267;SDS011;6196;48.398;11.736;2023-02-01T17:27:26;3.77;;;1.67;;
12267;SDS011;6196;48.398;11.736;2023-02-01T17:29:55;4.40;;;2.07;;
12267;SDS011;6196;48.398;11.736;2023-02-01T17:32:23;7.80;;;2.00;;
12267;SDS011;6196;48.398;11.736;2023-02-01T17:34:51;5.87;;;2.10;;
12267;SDS011;6196;48.398;11.736;2023-02-01T17:37:29;6.27;;;2.27;;
12267;SDS011;6196;48.398;11.736;2023-02-01T17:39:59;5.47;;;2.73;;
12267;SDS011;6196;48.398;11.736;2023-02-01T17:42:27;5.97;;;2.40;;
12267;SDS011;6196;48.398;11.736;2023-02-01T17:44:56;5.47;;;2.23;;
12267;SDS011;6196;48.398;11.736;2023-02-01T17:47:27;8.20;;;2.50;;
12267;SDS011;6196;48.398;11.736;2023-02-01T17:49:54;6.13;;;2.40;;
12267;SDS011;6196;48.398;11.736;2023-02-01T17:52:23;5.57;;;2.50;;
12267;SDS011;6196;48.398;11.736;2023-02-01T17:54:51;8.70;;;3.80;;
12267;SDS011;6196;48.398;11.736;2023-02-01T17:57:19;4.47;;;2.50;;
12267;SDS011;6196;48.398;11.736;2023-02-01T17:59:46;9.90;;;2.80;;
12267;SDS011;6196;48.398;11.736;2023-02-01T18:02:20;5.00;;;2.10;;
12267;SDS011;6196;48.398;11.736;2023-02-01T18:04:50;6.70;;;3.13;;
12267;SDS011;6196;48.398;11.736;2023-02-01T18:07:17;6.33;;;2.60;;
12267;SDS011;6196;48.398;11.736;2023-02-01T18:09:44;5.67;;;2.60;;
12267;SDS011;6196;48.398;11.736;2023-02-01T18:12:14;7.07;;;2.97;;
12267;SDS011;6196;48.398;11.736;2023-02-01T18:14:48;6.87;;;2.73;;
12267;SDS011;6196;48.398;11.736;2023-02-01T18:17:14;5.63;;;2.97;;
12267;SDS011;6196;48.398;11.736;2023-02-01T18:19:41;8.87;;;2.73;;
12267;SDS011;6196;48.398;11.736;2023-02-01T18:22:18;5.80;;;2.30;;
12267;SDS011;6196;48.398;11.736;2023-02-01T18:24:49;4.83;;;2.80;;
12267;SDS011;6196;48.398;11.736;2023-02-01T18:27:16;7.40;;;3.00;;
12267;SDS011;6196;48.398;11.736;2023-02-01T18:29:42;7.83;;;3.10;;
12267;SDS011;6196;48.398;11.736;2023-02-01T18:32:09;4.63;;;2.30;;
12267;SDS011;6196;48.398;11.736;2023-02-01T18:34:36;3.73;;;2.53;;